Aérodrome :







RETROUVEZ-NOUS SUR...

 
LOGIN :

S'inscrire | Disclaimer

   EN    FR    IT 

 









Légende :    VFR   VFR Marginal   IFR   IFR Intensif   IFR Très Intensif
Visi : 
Plafond : 
>= 8 km
>= 3000ft
5 à 8 km
1000 à 3000 ft
1500m à 5 km
500 à 1000 ft
800 à 1500m
200 à 500 ft
< 800m
< 200 ft
Symboles :   Orages  Brouillard  Fortes neiges  Fortes précipitations  Vent > 20 kt






- Altitude de l'aérodrome : 107 ft


KBVY - Beverly Municipal

DERNIER METAR :
  • 251015Z AUTO 01004KT 2SM BR OVC004 16/16 A3033 RMK AO2 RAE03 P0001 T01610156

METARs EXPIRÉS :
  • 251007Z AUTO 02004KT 3SM BR OVC004 16/15 A3033 RMK AO2 RAE03 P0000 T01610150
  • 250957Z AUTO 06004KT 2SM -RA BR OVC004 16/15 A3033 RMK AO2 P0000 T01610150
  • 250953Z AUTO 06003KT 1 1/2SM -RA BR OVC005 16/15 A3033 RMK AO2 RAB12 SLP265 P0001 T01560150
  • 250905Z AUTO 08005KT 4SM BR BKN006 OVC017 16/15 A3033 RMK AO2 T01560150
  • 250853Z AUTO 09004KT 4SM BR FEW007 OVC017 16/14 A3033 RMK AO2 SLP266 60001 T01560144 56015
  • 250826Z AUTO 10006KT 8SM SCT021 OVC029 16/14 A3033 RMK AO2 T01560144
  • 250814Z AUTO 10006KT 6SM BR FEW005 FEW023 OVC031 16/14 A3033 RMK AO2 T01560144
  • 250753Z AUTO 11005KT 9SM OVC032 16/14 A3033 RMK AO2 SLP265 T01560144
  • 250737Z AUTO 10003KT 10SM FEW005 SCT012 OVC031 16/14 A3034 RMK AO2 T01560144
  • 250726Z AUTO 11004KT 8SM SCT005 BKN012 OVC033 16/14 A3034 RMK AO2 T01560144

TAF N/A
FIR KZBW / Amérique du Nord



MET'MAP, la Météo Aéronautique d'un coup d'oeil ! - Copyright ORBIFLY Décembre 2007 - Disclaimer

ORBIFLY MET'MAP TEAM :

Programmation & Développement : Alexandra Zaïnal
Sur une idée originale de : Baudouin d'Aumeries
Assistance à la programmation : Marc-Olivier Méhu
Soutien technique & logistique : Manuel Goepfert

Contact : metmap@orbifly.com




SOURCES & CREDITS :

   NOAA